Terminal Aerodrome Forecast
Issued by NWS Sioux Falls, SD

Home | Current Version | Previous Version | Text Only | Print | Product List | Glossary Off
Versions: 1 2 3 4 5 6 7 8 9 10 11 12 13 14 15 16 17 18 19 20 21 22 23

783
FTUS43 KFSD 230457 AAB
TAFHON
TAF AMD
KHON 230457Z 2305/2324 33009KT P6SM VCTS BKN025CB
     FM230600 33009KT P6SM VCTS OVC025CB
     FM231700 02009KT P6SM SHRA VCTS OVC025CB
     FM232100 35009KT 5SM SHRA VCTS OVC020CB=

USA.gov is the U.S. government's official web portal to all federal, state and local government web resources and services.